sensor_id;sensor_type;location;lat;lon;timestamp;temperature;humidity
6118;DHT22;3089;48.202;11.510;2023-02-01T00:00:54;2.90;99.90
6118;DHT22;3089;48.202;11.510;2023-02-01T00:03:21;2.90;99.90
6118;DHT22;3089;48.202;11.510;2023-02-01T00:05:55;2.90;99.90
6118;DHT22;3089;48.202;11.510;2023-02-01T00:08:23;2.90;99.90
6118;DHT22;3089;48.202;11.510;2023-02-01T00:10:58;2.90;99.90
6118;DHT22;3089;48.202;11.510;2023-02-01T00:13:28;2.90;99.90
6118;DHT22;3089;48.202;11.510;2023-02-01T00:16:04;2.90;99.90
6118;DHT22;3089;48.202;11.510;2023-02-01T00:18:32;2.90;99.90
6118;DHT22;3089;48.202;11.510;2023-02-01T00:21:00;2.90;99.90
6118;DHT22;3089;48.202;11.510;2023-02-01T00:23:28;2.90;99.90
6118;DHT22;3089;48.202;11.510;2023-02-01T00:26:00;2.80;99.90
6118;DHT22;3089;48.202;11.510;2023-02-01T00:28:27;2.80;99.90
6118;DHT22;3089;48.202;11.510;2023-02-01T00:30:56;2.90;99.90
6118;DHT22;3089;48.202;11.510;2023-02-01T00:33:26;2.90;99.90
6118;DHT22;3089;48.202;11.510;2023-02-01T00:35:56;2.90;99.90
6118;DHT22;3089;48.202;11.510;2023-02-01T00:38:25;2.90;99.90
6118;DHT22;3089;48.202;11.510;2023-02-01T00:40:53;2.90;99.90
6118;DHT22;3089;48.202;11.510;2023-02-01T00:43:21;2.90;99.90
6118;DHT22;3089;48.202;11.510;2023-02-01T00:45:48;2.90;99.90
6118;DHT22;3089;48.202;11.510;2023-02-01T00:48:16;2.80;99.90
6118;DHT22;3089;48.202;11.510;2023-02-01T00:50:45;2.90;99.90
6118;DHT22;3089;48.202;11.510;2023-02-01T00:53:13;2.80;99.90
6118;DHT22;3089;48.202;11.510;2023-02-01T00:55:44;2.80;99.90
6118;DHT22;3089;48.202;11.510;2023-02-01T00:58:12;2.80;99.90
6118;DHT22;3089;48.202;11.510;2023-02-01T01:00:40;2.80;99.90
6118;DHT22;3089;48.202;11.510;2023-02-01T01:03:08;2.80;99.90
6118;DHT22;3089;48.202;11.510;2023-02-01T01:05:46;2.70;99.90
6118;DHT22;3089;48.202;11.510;2023-02-01T01:08:15;2.70;99.90
6118;DHT22;3089;48.202;11.510;2023-02-01T01:10:43;2.80;99.90
6118;DHT22;3089;48.202;11.510;2023-02-01T01:13:12;2.80;99.90
6118;DHT22;3089;48.202;11.510;2023-02-01T01:15:41;2.80;99.90
6118;DHT22;3089;48.202;11.510;2023-02-01T01:18:10;2.80;99.90
6118;DHT22;3089;48.202;11.510;2023-02-01T01:20:40;2.80;99.90
6118;DHT22;3089;48.202;11.510;2023-02-01T01:23:10;2.80;99.90
6118;DHT22;3089;48.202;11.510;2023-02-01T01:25:38;2.80;99.90
6118;DHT22;3089;48.202;11.510;2023-02-01T01:28:06;2.70;99.90
6118;DHT22;3089;48.202;11.510;2023-02-01T01:30:35;2.70;99.90
6118;DHT22;3089;48.202;11.510;2023-02-01T01:33:03;2.70;99.90
6118;DHT22;3089;48.202;11.510;2023-02-01T01:35:31;2.70;99.90
6118;DHT22;3089;48.202;11.510;2023-02-01T01:38:00;2.70;99.90
6118;DHT22;3089;48.202;11.510;2023-02-01T01:40:30;2.70;99.90
6118;DHT22;3089;48.202;11.510;2023-02-01T01:42:58;2.80;99.90
6118;DHT22;3089;48.202;11.510;2023-02-01T01:45:28;2.70;99.90
6118;DHT22;3089;48.202;11.510;2023-02-01T01:47:58;2.70;99.90
6118;DHT22;3089;48.202;11.510;2023-02-01T01:50:29;2.80;99.90
6118;DHT22;3089;48.202;11.510;2023-02-01T01:53:00;2.70;99.90
6118;DHT22;3089;48.202;11.510;2023-02-01T01:55:32;2.70;99.90
6118;DHT22;3089;48.202;11.510;2023-02-01T01:58:05;2.70;99.90
6118;DHT22;3089;48.202;11.510;2023-02-01T02:00:34;2.70;99.90
6118;DHT22;3089;48.202;11.510;2023-02-01T02:03:08;2.70;99.90
6118;DHT22;3089;48.202;11.510;2023-02-01T02:05:39;2.70;99.90
6118;DHT22;3089;48.202;11.510;2023-02-01T02:08:08;2.60;99.90
6118;DHT22;3089;48.202;11.510;2023-02-01T02:10:38;2.60;99.90
6118;DHT22;3089;48.202;11.510;2023-02-01T02:13:23;2.60;99.90
6118;DHT22;3089;48.202;11.510;2023-02-01T02:16:00;2.60;99.90
6118;DHT22;3089;48.202;11.510;2023-02-01T02:18:38;2.60;99.90
6118;DHT22;3089;48.202;11.510;2023-02-01T02:21:14;2.60;99.90
6118;DHT22;3089;48.202;11.510;2023-02-01T02:24:08;2.60;99.90
6118;DHT22;3089;48.202;11.510;2023-02-01T02:29:54;2.60;99.90
6118;DHT22;3089;48.202;11.510;2023-02-01T02:33:14;2.60;99.90
6118;DHT22;3089;48.202;11.510;2023-02-01T02:35:46;2.70;99.90
6118;DHT22;3089;48.202;11.510;2023-02-01T02:38:24;2.60;99.90
6118;DHT22;3089;48.202;11.510;2023-02-01T02:41:03;2.60;99.90
6118;DHT22;3089;48.202;11.510;2023-02-01T02:43:37;2.60;99.90
6118;DHT22;3089;48.202;11.510;2023-02-01T02:46:26;2.70;99.90
6118;DHT22;3089;48.202;11.510;2023-02-01T02:49:20;2.60;99.90
6118;DHT22;3089;48.202;11.510;2023-02-01T02:51:53;2.60;99.90
6118;DHT22;3089;48.202;11.510;2023-02-01T02:54:43;2.60;99.90
6118;DHT22;3089;48.202;11.510;2023-02-01T02:57:20;2.60;99.90
6118;DHT22;3089;48.202;11.510;2023-02-01T03:00:11;2.60;99.90
6118;DHT22;3089;48.202;11.510;2023-02-01T03:02:57;2.60;99.90
6118;DHT22;3089;48.202;11.510;2023-02-01T03:05:45;2.60;99.90
6118;DHT22;3089;48.202;11.510;2023-02-01T03:08:15;2.60;99.90
6118;DHT22;3089;48.202;11.510;2023-02-01T03:10:56;2.60;99.90
6118;DHT22;3089;48.202;11.510;2023-02-01T03:13:33;2.60;99.90
6118;DHT22;3089;48.202;11.510;2023-02-01T03:16:08;2.60;99.90
6118;DHT22;3089;48.202;11.510;2023-02-01T03:18:46;2.60;99.90
6118;DHT22;3089;48.202;11.510;2023-02-01T03:21:20;2.70;99.90
6118;DHT22;3089;48.202;11.510;2023-02-01T03:23:50;2.60;99.90
6118;DHT22;3089;48.202;11.510;2023-02-01T03:26:20;2.60;99.90
6118;DHT22;3089;48.202;11.510;2023-02-01T03:28:54;2.60;99.90
6118;DHT22;3089;48.202;11.510;2023-02-01T03:31:23;2.60;99.90
6118;DHT22;3089;48.202;11.510;2023-02-01T03:33:52;2.70;99.90
6118;DHT22;3089;48.202;11.510;2023-02-01T03:36:26;2.60;99.90
6118;DHT22;3089;48.202;11.510;2023-02-01T03:39:00;2.60;99.90
6118;DHT22;3089;48.202;11.510;2023-02-01T03:41:35;2.60;99.90
6118;DHT22;3089;48.202;11.510;2023-02-01T03:44:09;2.60;99.90
6118;DHT22;3089;48.202;11.510;2023-02-01T03:46:42;2.60;99.90
6118;DHT22;3089;48.202;11.510;2023-02-01T03:49:16;2.60;99.90
6118;DHT22;3089;48.202;11.510;2023-02-01T03:51:47;2.60;99.90
6118;DHT22;3089;48.202;11.510;2023-02-01T03:54:17;2.60;99.90
6118;DHT22;3089;48.202;11.510;2023-02-01T03:56:47;2.60;99.90
6118;DHT22;3089;48.202;11.510;2023-02-01T03:59:16;2.60;99.90
6118;DHT22;3089;48.202;11.510;2023-02-01T04:01:44;2.60;99.90
6118;DHT22;3089;48.202;11.510;2023-02-01T04:04:12;2.60;99.90
6118;DHT22;3089;48.202;11.510;2023-02-01T04:06:47;2.60;99.90
6118;DHT22;3089;48.202;11.510;2023-02-01T04:09:16;2.60;99.90
6118;DHT22;3089;48.202;11.510;2023-02-01T04:11:44;2.60;99.90
6118;DHT22;3089;48.202;11.510;2023-02-01T04:14:12;2.60;99.90
6118;DHT22;3089;48.202;11.510;2023-02-01T04:16:40;2.60;99.90
6118;DHT22;3089;48.202;11.510;2023-02-01T04:19:08;2.60;99.90
6118;DHT22;3089;48.202;11.510;2023-02-01T04:21:36;2.60;99.90
6118;DHT22;3089;48.202;11.510;2023-02-01T04:24:06;2.60;99.90
6118;DHT22;3089;48.202;11.510;2023-02-01T04:26:35;2.60;99.90
6118;DHT22;3089;48.202;11.510;2023-02-01T04:29:03;2.60;99.90
6118;DHT22;3089;48.202;11.510;2023-02-01T04:31:31;2.60;99.90
6118;DHT22;3089;48.202;11.510;2023-02-01T04:33:59;2.60;99.90
6118;DHT22;3089;48.202;11.510;2023-02-01T04:36:27;2.60;99.90
6118;DHT22;3089;48.202;11.510;2023-02-01T04:38:54;2.60;99.90
6118;DHT22;3089;48.202;11.510;2023-02-01T04:41:24;2.60;99.90
6118;DHT22;3089;48.202;11.510;2023-02-01T04:43:52;2.60;99.90
6118;DHT22;3089;48.202;11.510;2023-02-01T04:46:20;2.60;99.90
6118;DHT22;3089;48.202;11.510;2023-02-01T04:48:48;2.60;99.90
6118;DHT22;3089;48.202;11.510;2023-02-01T04:51:15;2.60;99.90
6118;DHT22;3089;48.202;11.510;2023-02-01T04:53:47;2.60;99.90
6118;DHT22;3089;48.202;11.510;2023-02-01T04:56:15;2.60;99.90
6118;DHT22;3089;48.202;11.510;2023-02-01T04:58:45;2.60;99.90
6118;DHT22;3089;48.202;11.510;2023-02-01T05:01:12;2.60;99.90
6118;DHT22;3089;48.202;11.510;2023-02-01T05:03:40;2.60;99.90
6118;DHT22;3089;48.202;11.510;2023-02-01T05:06:08;2.60;99.90
6118;DHT22;3089;48.202;11.510;2023-02-01T05:08:36;2.60;99.90
6118;DHT22;3089;48.202;11.510;2023-02-01T05:11:05;2.60;99.90
6118;DHT22;3089;48.202;11.510;2023-02-01T05:13:32;2.60;99.90
6118;DHT22;3089;48.202;11.510;2023-02-01T05:16:16;2.70;99.90
6118;DHT22;3089;48.202;11.510;2023-02-01T05:18:44;2.60;99.90
6118;DHT22;3089;48.202;11.510;2023-02-01T05:21:12;2.70;99.90
6118;DHT22;3089;48.202;11.510;2023-02-01T05:23:40;2.60;99.90
6118;DHT22;3089;48.202;11.510;2023-02-01T05:26:22;2.70;99.90
6118;DHT22;3089;48.202;11.510;2023-02-01T05:28:51;2.60;99.90
6118;DHT22;3089;48.202;11.510;2023-02-01T05:31:20;2.60;99.90
6118;DHT22;3089;48.202;11.510;2023-02-01T05:33:48;2.70;99.90
6118;DHT22;3089;48.202;11.510;2023-02-01T05:36:16;2.70;99.90
6118;DHT22;3089;48.202;11.510;2023-02-01T05:38:44;2.70;99.90
6118;DHT22;3089;48.202;11.510;2023-02-01T05:41:12;2.60;99.90
6118;DHT22;3089;48.202;11.510;2023-02-01T05:43:40;2.70;99.90
6118;DHT22;3089;48.202;11.510;2023-02-01T05:46:08;2.70;99.90
6118;DHT22;3089;48.202;11.510;2023-02-01T05:48:38;2.70;99.90
6118;DHT22;3089;48.202;11.510;2023-02-01T05:51:06;2.70;99.90
6118;DHT22;3089;48.202;11.510;2023-02-01T05:53:34;2.60;99.90
6118;DHT22;3089;48.202;11.510;2023-02-01T05:56:03;2.60;99.90
6118;DHT22;3089;48.202;11.510;2023-02-01T05:58:31;2.70;99.90
6118;DHT22;3089;48.202;11.510;2023-02-01T06:01:00;2.60;99.90
6118;DHT22;3089;48.202;11.510;2023-02-01T06:03:28;2.60;99.90
6118;DHT22;3089;48.202;11.510;2023-02-01T06:05:57;2.70;99.90
6118;DHT22;3089;48.202;11.510;2023-02-01T06:08:27;2.60;99.90
6118;DHT22;3089;48.202;11.510;2023-02-01T06:10:58;2.60;99.90
6118;DHT22;3089;48.202;11.510;2023-02-01T06:13:26;2.70;99.90
6118;DHT22;3089;48.202;11.510;2023-02-01T06:15:54;2.60;99.90
6118;DHT22;3089;48.202;11.510;2023-02-01T06:18:24;2.60;99.90
6118;DHT22;3089;48.202;11.510;2023-02-01T06:20:53;2.60;99.90
6118;DHT22;3089;48.202;11.510;2023-02-01T06:23:22;2.60;99.90
6118;DHT22;3089;48.202;11.510;2023-02-01T06:25:51;2.70;99.90
6118;DHT22;3089;48.202;11.510;2023-02-01T06:28:19;2.60;99.90
6118;DHT22;3089;48.202;11.510;2023-02-01T06:30:47;2.60;99.90
6118;DHT22;3089;48.202;11.510;2023-02-01T06:33:15;2.70;99.90
6118;DHT22;3089;48.202;11.510;2023-02-01T06:35:43;2.70;99.90
6118;DHT22;3089;48.202;11.510;2023-02-01T06:38:12;2.70;99.90
6118;DHT22;3089;48.202;11.510;2023-02-01T06:40:41;2.60;99.90
6118;DHT22;3089;48.202;11.510;2023-02-01T06:43:09;2.70;99.90
6118;DHT22;3089;48.202;11.510;2023-02-01T06:45:37;2.70;99.90
6118;DHT22;3089;48.202;11.510;2023-02-01T06:48:05;2.70;99.90
6118;DHT22;3089;48.202;11.510;2023-02-01T06:50:33;2.70;99.90
6118;DHT22;3089;48.202;11.510;2023-02-01T06:53:01;2.70;99.90
6118;DHT22;3089;48.202;11.510;2023-02-01T06:55:29;2.70;99.90
6118;DHT22;3089;48.202;11.510;2023-02-01T06:57:58;2.70;99.90
6118;DHT22;3089;48.202;11.510;2023-02-01T07:00:28;2.70;99.90
6118;DHT22;3089;48.202;11.510;2023-02-01T07:02:57;2.70;99.90
6118;DHT22;3089;48.202;11.510;2023-02-01T07:05:26;2.70;99.90
6118;DHT22;3089;48.202;11.510;2023-02-01T07:07:53;2.70;99.90
6118;DHT22;3089;48.202;11.510;2023-02-01T07:10:21;2.70;99.90
6118;DHT22;3089;48.202;11.510;2023-02-01T07:12:51;2.70;99.90
6118;DHT22;3089;48.202;11.510;2023-02-01T07:15:21;2.80;99.90
6118;DHT22;3089;48.202;11.510;2023-02-01T07:17:51;2.80;99.90
6118;DHT22;3089;48.202;11.510;2023-02-01T07:20:21;2.80;99.90
6118;DHT22;3089;48.202;11.510;2023-02-01T07:22:54;2.80;99.90
6118;DHT22;3089;48.202;11.510;2023-02-01T07:25:22;2.80;99.90
6118;DHT22;3089;48.202;11.510;2023-02-01T07:27:50;2.80;99.90
6118;DHT22;3089;48.202;11.510;2023-02-01T07:30:18;2.80;99.90
6118;DHT22;3089;48.202;11.510;2023-02-01T07:32:48;2.80;99.90
6118;DHT22;3089;48.202;11.510;2023-02-01T07:35:16;2.90;99.90
6118;DHT22;3089;48.202;11.510;2023-02-01T07:37:44;2.90;99.90
6118;DHT22;3089;48.202;11.510;2023-02-01T07:40:12;2.80;99.90
6118;DHT22;3089;48.202;11.510;2023-02-01T07:42:40;2.90;99.90
6118;DHT22;3089;48.202;11.510;2023-02-01T07:45:09;2.90;99.90
6118;DHT22;3089;48.202;11.510;2023-02-01T07:47:48;2.90;99.90
6118;DHT22;3089;48.202;11.510;2023-02-01T07:50:16;2.90;99.90
6118;DHT22;3089;48.202;11.510;2023-02-01T07:52:44;2.90;99.90
6118;DHT22;3089;48.202;11.510;2023-02-01T07:55:12;2.90;99.90
6118;DHT22;3089;48.202;11.510;2023-02-01T07:57:40;2.90;99.90
6118;DHT22;3089;48.202;11.510;2023-02-01T08:00:09;2.90;99.90
6118;DHT22;3089;48.202;11.510;2023-02-01T08:02:57;2.90;99.90
6118;DHT22;3089;48.202;11.510;2023-02-01T08:05:25;2.90;99.90
6118;DHT22;3089;48.202;11.510;2023-02-01T08:07:53;2.90;99.90
6118;DHT22;3089;48.202;11.510;2023-02-01T08:10:20;2.90;99.90
6118;DHT22;3089;48.202;11.510;2023-02-01T08:12:49;3.00;99.90
6118;DHT22;3089;48.202;11.510;2023-02-01T08:15:18;3.00;99.90
6118;DHT22;3089;48.202;11.510;2023-02-01T08:17:47;3.00;99.90
6118;DHT22;3089;48.202;11.510;2023-02-01T08:20:17;3.00;99.90
6118;DHT22;3089;48.202;11.510;2023-02-01T08:22:45;3.00;99.90
6118;DHT22;3089;48.202;11.510;2023-02-01T08:25:13;3.00;99.90
6118;DHT22;3089;48.202;11.510;2023-02-01T08:27:40;3.00;99.90
6118;DHT22;3089;48.202;11.510;2023-02-01T08:30:09;3.10;99.90
6118;DHT22;3089;48.202;11.510;2023-02-01T08:32:37;3.00;99.90
6118;DHT22;3089;48.202;11.510;2023-02-01T08:35:06;3.10;99.90
6118;DHT22;3089;48.202;11.510;2023-02-01T08:37:35;3.10;99.90
6118;DHT22;3089;48.202;11.510;2023-02-01T08:40:04;3.10;99.90
6118;DHT22;3089;48.202;11.510;2023-02-01T08:42:33;3.20;99.90
6118;DHT22;3089;48.202;11.510;2023-02-01T08:45:23;3.20;99.90
6118;DHT22;3089;48.202;11.510;2023-02-01T08:47:52;3.20;99.90
6118;DHT22;3089;48.202;11.510;2023-02-01T08:50:21;3.30;99.90
6118;DHT22;3089;48.202;11.510;2023-02-01T08:52:51;3.20;99.90
6118;DHT22;3089;48.202;11.510;2023-02-01T08:55:19;3.30;99.90
6118;DHT22;3089;48.202;11.510;2023-02-01T08:57:47;3.30;99.90
6118;DHT22;3089;48.202;11.510;2023-02-01T09:00:17;3.30;99.90
6118;DHT22;3089;48.202;11.510;2023-02-01T09:02:45;3.30;99.90
6118;DHT22;3089;48.202;11.510;2023-02-01T09:05:13;3.30;99.90
6118;DHT22;3089;48.202;11.510;2023-02-01T09:07:42;3.30;99.90
6118;DHT22;3089;48.202;11.510;2023-02-01T09:10:12;3.40;99.90
6118;DHT22;3089;48.202;11.510;2023-02-01T09:12:42;3.40;99.90
6118;DHT22;3089;48.202;11.510;2023-02-01T09:15:10;3.40;99.90
6118;DHT22;3089;48.202;11.510;2023-02-01T09:17:38;3.40;99.90
6118;DHT22;3089;48.202;11.510;2023-02-01T09:20:09;3.50;99.90
6118;DHT22;3089;48.202;11.510;2023-02-01T09:22:38;3.40;99.90
6118;DHT22;3089;48.202;11.510;2023-02-01T09:25:07;3.50;99.90
6118;DHT22;3089;48.202;11.510;2023-02-01T09:27:36;3.50;99.90
6118;DHT22;3089;48.202;11.510;2023-02-01T09:30:05;3.50;99.90
6118;DHT22;3089;48.202;11.510;2023-02-01T09:32:33;3.50;99.90
6118;DHT22;3089;48.202;11.510;2023-02-01T09:35:01;3.50;99.90
6118;DHT22;3089;48.202;11.510;2023-02-01T09:37:29;3.60;99.90
6118;DHT22;3089;48.202;11.510;2023-02-01T09:39:57;3.60;99.90
6118;DHT22;3089;48.202;11.510;2023-02-01T09:42:46;3.60;99.90
6118;DHT22;3089;48.202;11.510;2023-02-01T09:45:22;3.60;99.90
6118;DHT22;3089;48.202;11.510;2023-02-01T09:47:56;3.70;99.90
6118;DHT22;3089;48.202;11.510;2023-02-01T09:50:30;3.80;99.90
6118;DHT22;3089;48.202;11.510;2023-02-01T09:53:03;3.70;99.90
6118;DHT22;3089;48.202;11.510;2023-02-01T09:55:37;3.70;99.90
6118;DHT22;3089;48.202;11.510;2023-02-01T09:58:13;3.70;99.90
6118;DHT22;3089;48.202;11.510;2023-02-01T10:00:45;3.70;99.90
6118;DHT22;3089;48.202;11.510;2023-02-01T10:03:15;3.70;99.90
6118;DHT22;3089;48.202;11.510;2023-02-01T10:05:57;3.60;99.90
6118;DHT22;3089;48.202;11.510;2023-02-01T10:08:40;3.70;99.90
6118;DHT22;3089;48.202;11.510;2023-02-01T10:11:26;3.70;99.90
6118;DHT22;3089;48.202;11.510;2023-02-01T10:14:03;3.70;99.90
6118;DHT22;3089;48.202;11.510;2023-02-01T10:16:40;3.70;99.90
6118;DHT22;3089;48.202;11.510;2023-02-01T10:19:33;3.70;99.90
6118;DHT22;3089;48.202;11.510;2023-02-01T10:22:05;3.70;99.90
6118;DHT22;3089;48.202;11.510;2023-02-01T10:24:41;3.70;99.90
6118;DHT22;3089;48.202;11.510;2023-02-01T10:27:15;3.70;99.90
6118;DHT22;3089;48.202;11.510;2023-02-01T10:29:49;3.70;99.90
6118;DHT22;3089;48.202;11.510;2023-02-01T10:32:21;3.70;99.90
6118;DHT22;3089;48.202;11.510;2023-02-01T10:34:53;3.70;99.90
6118;DHT22;3089;48.202;11.510;2023-02-01T10:37:26;3.70;99.90
6118;DHT22;3089;48.202;11.510;2023-02-01T10:39:56;3.70;99.90
6118;DHT22;3089;48.202;11.510;2023-02-01T10:42:26;3.70;99.90
6118;DHT22;3089;48.202;11.510;2023-02-01T10:44:59;3.70;99.90
6118;DHT22;3089;48.202;11.510;2023-02-01T10:47:31;3.70;99.90
6118;DHT22;3089;48.202;11.510;2023-02-01T10:50:08;3.80;99.90
6118;DHT22;3089;48.202;11.510;2023-02-01T10:52:44;3.80;99.90
6118;DHT22;3089;48.202;11.510;2023-02-01T10:55:35;3.80;99.90
6118;DHT22;3089;48.202;11.510;2023-02-01T10:58:10;3.90;99.90
6118;DHT22;3089;48.202;11.510;2023-02-01T11:00:45;3.80;99.90
6118;DHT22;3089;48.202;11.510;2023-02-01T11:03:34;3.80;99.90
6118;DHT22;3089;48.202;11.510;2023-02-01T11:06:09;3.90;99.90
6118;DHT22;3089;48.202;11.510;2023-02-01T11:08:42;3.90;99.90
6118;DHT22;3089;48.202;11.510;2023-02-01T11:11:11;3.80;99.90
6118;DHT22;3089;48.202;11.510;2023-02-01T11:13:40;3.80;99.90
6118;DHT22;3089;48.202;11.510;2023-02-01T11:16:13;3.80;99.90
6118;DHT22;3089;48.202;11.510;2023-02-01T11:18:42;3.80;99.90
6118;DHT22;3089;48.202;11.510;2023-02-01T11:21:10;3.80;99.90
6118;DHT22;3089;48.202;11.510;2023-02-01T11:23:43;3.80;99.90
6118;DHT22;3089;48.202;11.510;2023-02-01T11:26:14;3.80;99.90
6118;DHT22;3089;48.202;11.510;2023-02-01T11:28:50;3.80;99.90
6118;DHT22;3089;48.202;11.510;2023-02-01T11:31:20;3.80;99.90
6118;DHT22;3089;48.202;11.510;2023-02-01T11:33:51;3.70;99.90
6118;DHT22;3089;48.202;11.510;2023-02-01T11:36:24;3.80;99.90
6118;DHT22;3089;48.202;11.510;2023-02-01T11:39:08;3.70;99.90
6118;DHT22;3089;48.202;11.510;2023-02-01T11:41:41;3.80;99.90
6118;DHT22;3089;48.202;11.510;2023-02-01T11:44:21;3.70;99.90
6118;DHT22;3089;48.202;11.510;2023-02-01T11:46:50;3.70;99.90
6118;DHT22;3089;48.202;11.510;2023-02-01T11:49:21;3.80;99.90
6118;DHT22;3089;48.202;11.510;2023-02-01T11:51:59;3.70;99.90
6118;DHT22;3089;48.202;11.510;2023-02-01T11:54:40;3.70;99.90
6118;DHT22;3089;48.202;11.510;2023-02-01T11:57:23;3.70;99.90
6118;DHT22;3089;48.202;11.510;2023-02-01T12:00:02;3.80;99.90
6118;DHT22;3089;48.202;11.510;2023-02-01T12:02:57;3.80;99.90
6118;DHT22;3089;48.202;11.510;2023-02-01T12:05:37;3.80;99.90
6118;DHT22;3089;48.202;11.510;2023-02-01T12:08:20;3.80;99.90
6118;DHT22;3089;48.202;11.510;2023-02-01T12:11:00;3.80;99.90
6118;DHT22;3089;48.202;11.510;2023-02-01T12:13:41;3.80;99.90
6118;DHT22;3089;48.202;11.510;2023-02-01T12:16:19;3.90;99.90
6118;DHT22;3089;48.202;11.510;2023-02-01T12:19:09;3.80;99.90
6118;DHT22;3089;48.202;11.510;2023-02-01T12:21:58;3.80;99.90
6118;DHT22;3089;48.202;11.510;2023-02-01T12:24:47;3.90;99.90
6118;DHT22;3089;48.202;11.510;2023-02-01T12:27:38;3.90;99.90
6118;DHT22;3089;48.202;11.510;2023-02-01T12:33:41;3.80;99.90
6118;DHT22;3089;48.202;11.510;2023-02-01T12:36:18;3.80;99.90
6118;DHT22;3089;48.202;11.510;2023-02-01T12:38:57;3.80;99.90
6118;DHT22;3089;48.202;11.510;2023-02-01T12:41:47;3.70;99.90
6118;DHT22;3089;48.202;11.510;2023-02-01T12:44:35;3.70;99.90
6118;DHT22;3089;48.202;11.510;2023-02-01T12:47:08;3.80;99.90
6118;DHT22;3089;48.202;11.510;2023-02-01T12:49:46;3.70;99.90
6118;DHT22;3089;48.202;11.510;2023-02-01T12:52:20;3.80;99.90
6118;DHT22;3089;48.202;11.510;2023-02-01T12:54:53;3.80;99.90
6118;DHT22;3089;48.202;11.510;2023-02-01T12:57:26;3.80;99.90
6118;DHT22;3089;48.202;11.510;2023-02-01T13:00:03;3.80;99.90
6118;DHT22;3089;48.202;11.510;2023-02-01T13:02:37;3.80;99.90
6118;DHT22;3089;48.202;11.510;2023-02-01T13:05:14;3.90;99.90
6118;DHT22;3089;48.202;11.510;2023-02-01T13:07:48;3.80;99.90
6118;DHT22;3089;48.202;11.510;2023-02-01T13:10:21;3.80;99.90
6118;DHT22;3089;48.202;11.510;2023-02-01T13:12:54;3.90;99.90
6118;DHT22;3089;48.202;11.510;2023-02-01T13:15:27;3.90;99.90
6118;DHT22;3089;48.202;11.510;2023-02-01T13:18:00;3.90;99.90
6118;DHT22;3089;48.202;11.510;2023-02-01T13:20:31;3.90;99.90
6118;DHT22;3089;48.202;11.510;2023-02-01T13:23:04;3.90;99.90
6118;DHT22;3089;48.202;11.510;2023-02-01T13:25:38;4.00;99.90
6118;DHT22;3089;48.202;11.510;2023-02-01T13:28:12;4.00;99.90
6118;DHT22;3089;48.202;11.510;2023-02-01T13:30:55;3.90;99.90
6118;DHT22;3089;48.202;11.510;2023-02-01T13:33:37;3.80;99.90
6118;DHT22;3089;48.202;11.510;2023-02-01T13:36:45;3.80;99.90
6118;DHT22;3089;48.202;11.510;2023-02-01T13:42:23;3.80;99.90
6118;DHT22;3089;48.202;11.510;2023-02-01T13:44:57;3.80;99.90
6118;DHT22;3089;48.202;11.510;2023-02-01T13:47:28;3.80;99.90
6118;DHT22;3089;48.202;11.510;2023-02-01T13:49:59;3.80;99.90
6118;DHT22;3089;48.202;11.510;2023-02-01T13:52:35;3.70;99.90
6118;DHT22;3089;48.202;11.510;2023-02-01T13:55:16;3.80;99.90
6118;DHT22;3089;48.202;11.510;2023-02-01T13:58:00;3.70;99.90
6118;DHT22;3089;48.202;11.510;2023-02-01T14:00:31;3.70;99.90
6118;DHT22;3089;48.202;11.510;2023-02-01T14:03:42;3.70;99.90
6118;DHT22;3089;48.202;11.510;2023-02-01T14:06:37;3.70;99.90
6118;DHT22;3089;48.202;11.510;2023-02-01T14:09:31;3.70;99.90
6118;DHT22;3089;48.202;11.510;2023-02-01T14:15:21;3.70;99.90
6118;DHT22;3089;48.202;11.510;2023-02-01T14:17:51;3.70;99.90
6118;DHT22;3089;48.202;11.510;2023-02-01T14:20:43;3.70;99.90
6118;DHT22;3089;48.202;11.510;2023-02-01T14:26:11;3.70;99.90
6118;DHT22;3089;48.202;11.510;2023-02-01T14:28:46;3.70;99.90
6118;DHT22;3089;48.202;11.510;2023-02-01T14:34:19;3.90;99.90
6118;DHT22;3089;48.202;11.510;2023-02-01T14:36:55;3.80;99.90
6118;DHT22;3089;48.202;11.510;2023-02-01T14:39:30;3.80;99.90
6118;DHT22;3089;48.202;11.510;2023-02-01T14:42:02;3.80;99.90
6118;DHT22;3089;48.202;11.510;2023-02-01T14:44:33;3.70;99.90
6118;DHT22;3089;48.202;11.510;2023-02-01T14:47:27;3.70;99.90
6118;DHT22;3089;48.202;11.510;2023-02-01T14:50:11;3.80;99.90
6118;DHT22;3089;48.202;11.510;2023-02-01T14:52:45;3.70;99.90
6118;DHT22;3089;48.202;11.510;2023-02-01T14:55:16;3.80;99.90
6118;DHT22;3089;48.202;11.510;2023-02-01T14:57:49;3.70;99.90
6118;DHT22;3089;48.202;11.510;2023-02-01T15:00:22;3.80;99.90
6118;DHT22;3089;48.202;11.510;2023-02-01T15:02:53;3.80;99.90
6118;DHT22;3089;48.202;11.510;2023-02-01T15:05:28;3.80;99.90
6118;DHT22;3089;48.202;11.510;2023-02-01T15:08:00;3.80;99.90
6118;DHT22;3089;48.202;11.510;2023-02-01T15:10:31;3.80;99.90
6118;DHT22;3089;48.202;11.510;2023-02-01T15:13:00;3.80;99.90
6118;DHT22;3089;48.202;11.510;2023-02-01T15:15:28;3.70;99.90
6118;DHT22;3089;48.202;11.510;2023-02-01T15:18:01;3.70;99.90
6118;DHT22;3089;48.202;11.510;2023-02-01T15:20:31;3.70;99.90
6118;DHT22;3089;48.202;11.510;2023-02-01T15:23:01;3.80;99.90
6118;DHT22;3089;48.202;11.510;2023-02-01T15:25:33;3.70;99.90
6118;DHT22;3089;48.202;11.510;2023-02-01T15:28:02;3.70;99.90
6118;DHT22;3089;48.202;11.510;2023-02-01T15:30:31;3.70;99.90
6118;DHT22;3089;48.202;11.510;2023-02-01T15:33:07;3.70;99.90
6118;DHT22;3089;48.202;11.510;2023-02-01T15:35:38;3.70;99.90
6118;DHT22;3089;48.202;11.510;2023-02-01T15:38:30;3.70;99.90
6118;DHT22;3089;48.202;11.510;2023-02-01T15:41:01;3.70;99.90
6118;DHT22;3089;48.202;11.510;2023-02-01T15:43:30;3.70;99.90
6118;DHT22;3089;48.202;11.510;2023-02-01T15:46:01;3.70;99.90
6118;DHT22;3089;48.202;11.510;2023-02-01T15:48:35;3.70;99.90
6118;DHT22;3089;48.202;11.510;2023-02-01T15:51:05;3.60;99.90
6118;DHT22;3089;48.202;11.510;2023-02-01T15:53:33;3.60;99.90
6118;DHT22;3089;48.202;11.510;2023-02-01T15:56:03;3.70;99.90
6118;DHT22;3089;48.202;11.510;2023-02-01T15:58:31;3.60;99.90
6118;DHT22;3089;48.202;11.510;2023-02-01T16:01:03;3.60;99.90
6118;DHT22;3089;48.202;11.510;2023-02-01T16:03:36;3.60;99.90
6118;DHT22;3089;48.202;11.510;2023-02-01T16:06:06;3.70;99.90
6118;DHT22;3089;48.202;11.510;2023-02-01T16:08:35;3.60;99.90
6118;DHT22;3089;48.202;11.510;2023-02-01T16:11:25;3.60;99.90
6118;DHT22;3089;48.202;11.510;2023-02-01T16:13:54;3.60;99.90
6118;DHT22;3089;48.202;11.510;2023-02-01T16:16:22;3.60;99.90
6118;DHT22;3089;48.202;11.510;2023-02-01T16:18:51;3.60;99.90
6118;DHT22;3089;48.202;11.510;2023-02-01T16:21:19;3.60;99.90
6118;DHT22;3089;48.202;11.510;2023-02-01T16:23:49;3.50;99.90
6118;DHT22;3089;48.202;11.510;2023-02-01T16:26:17;3.50;99.90
6118;DHT22;3089;48.202;11.510;2023-02-01T16:28:46;3.50;99.90
6118;DHT22;3089;48.202;11.510;2023-02-01T16:31:16;3.50;99.90
6118;DHT22;3089;48.202;11.510;2023-02-01T16:33:50;3.50;99.90
6118;DHT22;3089;48.202;11.510;2023-02-01T16:36:19;3.50;99.90
6118;DHT22;3089;48.202;11.510;2023-02-01T16:38:48;3.50;99.90
6118;DHT22;3089;48.202;11.510;2023-02-01T16:41:18;3.50;99.90
6118;DHT22;3089;48.202;11.510;2023-02-01T16:43:49;3.50;99.90
6118;DHT22;3089;48.202;11.510;2023-02-01T16:46:19;3.50;99.90
6118;DHT22;3089;48.202;11.510;2023-02-01T16:48:53;3.40;99.90
6118;DHT22;3089;48.202;11.510;2023-02-01T16:51:21;3.50;99.90
6118;DHT22;3089;48.202;11.510;2023-02-01T16:53:51;3.40;99.90
6118;DHT22;3089;48.202;11.510;2023-02-01T16:56:22;3.50;99.90